< < Back
Terminal Aerodrome Forecast


Current Version              Previous Versions:   1  2  3  4  5  6  7  8  9  

Terminal Aerodrome Forecast

304
FTUS42 KGSP 012300
TAFAVL
TAF
KAVL 012320Z 0200/0224 20003KT P6SM FEW050 SCT200
     FM020600 00000KT 5SM BR FEW010 SCT150
     FM020800 00000KT 1SM BR BKN008
     FM021000 00000KT 1/2SM FG BKN002
     FM021300 30004KT P6SM SCT010
     FM021600 31005KT P6SM BKN050 PROB30 0220/0224 4SM TSRA
      BKN035CB=

Latest METAR

376
SAUS70 KWBC 020200 RRN
MTRAVL
METAR KAVL 020154Z 00000KT 10SM CLR 23/21 A3018 RMK AO2 SLP197
T02280206


USA.gov is the U.S. government's official web portal to all federal, state and local government web resources and services.